createdAt,value
2024-05-09T00:00:36.331Z,7.05
2024-05-09T00:03:08.043Z,7.65
2024-05-09T00:05:35.857Z,7.45
2024-05-09T00:08:03.179Z,8.73
2024-05-09T00:10:36.004Z,10.10
2024-05-09T00:13:05.713Z,9.93
2024-05-09T00:15:33.458Z,9.02
2024-05-09T00:18:00.946Z,9.18
2024-05-09T00:20:35.986Z,9.50
2024-05-09T00:23:07.659Z,9.57
2024-05-09T00:25:35.268Z,9.35
2024-05-09T00:28:02.329Z,9.13
2024-05-09T00:30:34.339Z,8.02
2024-05-09T00:33:08.111Z,6.70
2024-05-09T00:35:36.527Z,6.60
2024-05-09T00:38:03.588Z,6.20
2024-05-09T00:40:40.595Z,5.43
2024-05-09T00:43:11.110Z,5.55
2024-05-09T00:45:38.191Z,4.93
2024-05-09T00:48:08.666Z,6.80
2024-05-09T00:50:39.790Z,5.90
2024-05-09T00:55:36.852Z,4.90
2024-05-09T00:58:05.397Z,5.43
2024-05-09T01:00:38.761Z,5.63
2024-05-09T01:03:10.018Z,5.32
2024-05-09T01:05:39.345Z,5.22
2024-05-09T01:08:07.104Z,5.43
2024-05-09T01:10:35.499Z,5.57
2024-05-09T01:13:07.269Z,5.38
2024-05-09T01:15:35.814Z,6.38
2024-05-09T01:18:07.333Z,5.72
2024-05-09T01:20:41.133Z,5.30
2024-05-09T01:23:11.438Z,5.72
2024-05-09T01:25:38.474Z,5.75
2024-05-09T01:28:05.853Z,6.65
2024-05-09T01:30:35.684Z,6.85
2024-05-09T01:33:06.252Z,7.13
2024-05-09T01:35:34.535Z,7.38
2024-05-09T01:38:01.326Z,6.80
2024-05-09T01:40:36.838Z,6.05
2024-05-09T01:43:06.351Z,5.88
2024-05-09T01:45:33.184Z,6.32
2024-05-09T01:48:00.244Z,6.50
2024-05-09T01:52:56.824Z,6.75
2024-05-09T01:55:23.772Z,7.30
2024-05-09T01:57:50.385Z,7.55
2024-05-09T02:00:22.455Z,7.38
2024-05-09T02:05:24.706Z,6.55
2024-05-09T02:07:51.384Z,6.88
2024-05-09T02:10:23.510Z,6.53
2024-05-09T02:12:56.998Z,6.07
2024-05-09T02:15:23.581Z,6.95
2024-05-09T02:17:50.830Z,7.10
2024-05-09T02:20:26.767Z,7.40
2024-05-09T02:22:57.711Z,8.10
2024-05-09T02:25:27.002Z,7.72
2024-05-09T02:27:53.570Z,7.38
2024-05-09T02:30:29.903Z,7.40
2024-05-09T02:33:05.123Z,7.30
2024-05-09T02:35:31.881Z,6.07
2024-05-09T02:37:58.587Z,4.90
2024-05-09T02:40:33.533Z,5.22
2024-05-09T02:43:04.030Z,5.55
2024-05-09T02:45:30.785Z,5.97
2024-05-09T02:47:57.891Z,4.78
2024-05-09T02:50:33.534Z,5.50
2024-05-09T02:53:05.084Z,5.38
2024-05-09T02:55:31.902Z,5.15
2024-05-09T02:57:58.440Z,5.32
2024-05-09T03:00:34.313Z,5.38
2024-05-09T03:03:06.479Z,4.82
2024-05-09T03:05:33.718Z,4.50
2024-05-09T03:08:00.406Z,5.10
2024-05-09T03:10:29.151Z,4.45
2024-05-09T03:13:05.975Z,4.70
2024-05-09T03:15:33.012Z,4.53
2024-05-09T03:18:01.452Z,4.75
2024-05-09T03:20:33.851Z,5.32
2024-05-09T03:23:02.634Z,5.32
2024-05-09T03:25:29.363Z,4.15
2024-05-09T03:27:56.099Z,4.75
2024-05-09T03:30:35.802Z,4.85
2024-05-09T03:33:15.630Z,5.07
2024-05-09T03:35:46.512Z,4.88
2024-05-09T03:38:13.716Z,5.57
2024-05-09T03:40:47.661Z,5.80
2024-05-09T03:43:15.024Z,5.10
2024-05-09T03:45:45.371Z,4.90
2024-05-09T03:48:12.755Z,5.28
2024-05-09T03:50:39.871Z,5.10
2024-05-09T03:53:11.296Z,5.40
2024-05-09T03:55:38.234Z,4.40
2024-05-09T03:58:06.002Z,4.68
2024-05-09T04:00:38.047Z,5.45
2024-05-09T04:03:11.071Z,4.63
2024-05-09T04:05:44.106Z,5.32
2024-05-09T04:08:11.728Z,4.85
2024-05-09T04:10:38.497Z,5.85
2024-05-09T04:13:05.369Z,3.95
2024-05-09T04:15:32.481Z,4.60
2024-05-09T04:17:59.806Z,5.10
2024-05-09T04:22:56.549Z,5.47
2024-05-09T04:25:23.132Z,5.35
2024-05-09T04:27:49.692Z,5.15
2024-05-09T04:30:25.478Z,4.90
2024-05-09T04:32:57.781Z,5.00
2024-05-09T04:35:24.936Z,5.72
2024-05-09T04:37:51.582Z,5.50
2024-05-09T04:40:27.662Z,5.22
2024-05-09T04:42:58.355Z,5.82
2024-05-09T04:45:24.986Z,5.57
2024-05-09T04:47:52.180Z,5.10
2024-05-09T04:50:28.933Z,5.90
2024-05-09T04:53:00.662Z,5.28
2024-05-09T04:55:27.460Z,5.45
2024-05-09T04:57:54.178Z,6.40
2024-05-09T05:00:28.919Z,6.05
2024-05-09T05:03:06.063Z,5.40
2024-05-09T05:05:33.294Z,5.65
2024-05-09T05:08:00.723Z,5.30
2024-05-09T05:10:33.813Z,4.95
2024-05-09T05:13:24.936Z,5.85
2024-05-09T05:15:56.569Z,5.78
2024-05-09T05:18:24.985Z,4.72
2024-05-09T05:20:51.877Z,5.45
2024-05-09T05:23:20.353Z,5.45
2024-05-09T05:25:48.768Z,5.15
2024-05-09T05:28:16.441Z,4.57
2024-05-09T05:30:43.491Z,4.63
2024-05-09T05:33:11.902Z,5.15
2024-05-09T05:35:39.348Z,4.57
2024-05-09T05:38:10.411Z,5.47
2024-05-09T05:40:38.700Z,5.22
2024-05-09T05:43:08.669Z,4.90
2024-05-09T05:45:35.725Z,5.25
2024-05-09T05:48:07.588Z,5.30
2024-05-09T05:50:37.227Z,5.00
2024-05-09T05:53:09.836Z,4.30
2024-05-09T05:55:38.766Z,5.75
2024-05-09T05:58:09.454Z,5.15
2024-05-09T06:00:39.040Z,5.18
2024-05-09T06:03:12.743Z,5.38
2024-05-09T06:05:40.804Z,4.90
2024-05-09T06:08:07.989Z,5.20
2024-05-09T06:10:39.000Z,4.95
2024-05-09T06:13:08.902Z,4.78
2024-05-09T06:15:35.691Z,4.60
2024-05-09T06:18:05.656Z,5.25
2024-05-09T06:20:36.438Z,4.53
2024-05-09T06:23:09.721Z,4.78
2024-05-09T06:25:37.034Z,5.32
2024-05-09T06:28:03.973Z,5.70
2024-05-09T06:30:38.601Z,6.53
2024-05-09T06:33:09.933Z,5.70
2024-05-09T06:35:38.078Z,5.47
2024-05-09T06:38:05.156Z,5.38
2024-05-09T06:40:37.807Z,4.63
2024-05-09T06:43:13.665Z,5.22
2024-05-09T06:45:40.494Z,5.68
2024-05-09T06:48:08.702Z,4.90
2024-05-09T06:50:38.259Z,4.45
2024-05-09T06:53:09.645Z,4.25
2024-05-09T06:55:37.464Z,5.13
2024-05-09T06:58:06.706Z,4.78
2024-05-09T07:00:38.973Z,5.03
2024-05-09T07:03:13.301Z,3.90
2024-05-09T07:05:42.241Z,4.40
2024-05-09T07:08:09.339Z,4.55
2024-05-09T07:10:37.049Z,5.03
2024-05-09T07:13:11.675Z,4.95
2024-05-09T07:15:38.978Z,4.80
2024-05-09T07:18:24.009Z,4.20
2024-05-09T07:20:51.280Z,4.35
2024-05-09T07:23:18.661Z,3.58
2024-05-09T07:25:45.799Z,3.55
2024-05-09T07:28:17.641Z,3.72
2024-05-09T07:30:44.980Z,3.42
2024-05-09T07:33:21.033Z,3.97
2024-05-09T07:35:49.274Z,4.63
2024-05-09T07:38:16.181Z,3.40
2024-05-09T07:40:43.256Z,4.07
2024-05-09T07:43:14.001Z,3.92
2024-05-09T07:45:50.462Z,3.90
2024-05-09T07:53:39.044Z,4.18
2024-05-09T07:56:09.942Z,4.10
2024-05-09T07:58:37.486Z,4.28
2024-05-09T08:01:05.472Z,4.10
2024-05-09T08:03:32.572Z,4.25
2024-05-09T08:05:59.349Z,3.28
2024-05-09T08:08:25.953Z,3.63
2024-05-09T08:10:52.867Z,3.83
2024-05-09T08:13:19.643Z,3.15
2024-05-09T08:15:46.449Z,3.30
2024-05-09T08:18:13.388Z,3.05
2024-05-09T08:20:41.918Z,2.83
2024-05-09T08:23:08.485Z,3.33
2024-05-09T08:25:35.225Z,3.33
2024-05-09T08:28:04.288Z,3.25
2024-05-09T08:30:36.509Z,2.70
2024-05-09T08:33:12.476Z,2.20
2024-05-09T08:35:39.404Z,2.47
2024-05-09T08:38:07.291Z,2.33
2024-05-09T08:40:36.654Z,2.50
2024-05-09T08:43:11.032Z,2.42
2024-05-09T08:45:44.193Z,2.90
2024-05-09T08:48:13.880Z,3.15
2024-05-09T08:50:41.751Z,2.90
2024-05-09T08:53:09.191Z,3.17
2024-05-09T08:55:40.311Z,2.72
2024-05-09T08:58:12.691Z,2.63
2024-05-09T09:00:41.972Z,3.65
2024-05-09T09:03:11.708Z,3.35
2024-05-09T09:05:40.717Z,3.60
2024-05-09T09:08:08.735Z,3.00
2024-05-09T09:10:36.937Z,3.33
2024-05-09T09:13:05.431Z,3.33
2024-05-09T09:15:32.894Z,3.20
2024-05-09T09:18:01.107Z,2.83
2024-05-09T09:20:35.614Z,3.22
2024-05-09T09:23:04.742Z,3.40
2024-05-09T09:25:32.196Z,3.20
2024-05-09T09:27:59.273Z,3.10
2024-05-09T09:30:36.293Z,2.70
2024-05-09T09:33:06.271Z,3.25
2024-05-09T09:35:34.375Z,2.65
2024-05-09T09:38:03.216Z,3.53
2024-05-09T09:40:46.970Z,3.15
2024-05-09T09:43:21.941Z,3.65
2024-05-09T09:45:51.248Z,3.53
2024-05-09T09:48:23.456Z,3.55
2024-05-09T09:50:52.428Z,3.78
2024-05-09T09:53:19.816Z,4.35
2024-05-09T09:55:47.323Z,3.80
2024-05-09T09:58:16.880Z,4.53
2024-05-09T10:00:44.455Z,4.78
2024-05-09T10:03:11.579Z,6.50
2024-05-09T10:05:39.867Z,5.10
2024-05-09T10:08:10.062Z,5.22
2024-05-09T10:10:36.952Z,5.70
2024-05-09T10:13:08.299Z,4.97
2024-05-09T10:15:48.464Z,5.60
2024-05-09T10:18:15.714Z,5.43
2024-05-09T10:20:46.047Z,5.65
2024-05-09T10:23:26.108Z,5.45
2024-05-09T10:26:00.148Z,5.25
2024-05-09T10:28:31.099Z,4.80
2024-05-09T10:31:14.806Z,3.60
2024-05-09T10:33:51.206Z,3.97
2024-05-09T10:36:25.938Z,3.22
2024-05-09T10:38:54.127Z,4.55
2024-05-09T10:41:22.274Z,4.68
2024-05-09T10:43:50.120Z,4.60
2024-05-09T10:46:19.268Z,4.00
2024-05-09T10:48:47.798Z,5.00
2024-05-09T10:51:15.381Z,4.30
2024-05-09T10:53:43.969Z,3.83
2024-05-09T10:56:13.207Z,3.97
2024-05-09T10:58:39.797Z,2.65
2024-05-09T11:01:07.526Z,3.13
2024-05-09T11:03:35.727Z,3.17
2024-05-09T11:06:02.971Z,3.15
2024-05-09T11:08:34.999Z,2.70
2024-05-09T11:11:05.962Z,2.72
2024-05-09T11:13:35.665Z,2.60
2024-05-09T11:16:03.307Z,2.70
2024-05-09T11:18:35.521Z,2.58
2024-05-09T11:21:12.695Z,2.10
2024-05-09T11:23:40.255Z,2.00
2024-05-09T11:26:07.041Z,1.92
2024-05-09T11:28:33.607Z,2.67
2024-05-09T11:31:08.826Z,2.42
2024-05-09T11:33:38.211Z,1.98
2024-05-09T11:36:05.908Z,1.65
2024-05-09T11:38:33.086Z,1.80
2024-05-09T11:40:59.711Z,1.98
2024-05-09T11:43:26.332Z,2.40
2024-05-09T11:45:53.315Z,1.52
2024-05-09T11:48:20.255Z,2.42
2024-05-09T11:50:46.900Z,2.00
2024-05-09T11:53:13.728Z,1.52
2024-05-09T11:55:40.290Z,1.75
2024-05-09T11:58:08.238Z,1.20
2024-05-09T12:00:37.442Z,1.58
2024-05-09T12:03:05.889Z,1.40
2024-05-09T12:05:34.016Z,1.20
2024-05-09T12:08:01.635Z,1.20
2024-05-09T12:12:58.316Z,0.80
2024-05-09T12:15:25.081Z,0.70
2024-05-09T12:17:51.783Z,0.82
2024-05-09T12:20:25.813Z,0.70
2024-05-09T12:22:59.886Z,0.80
2024-05-09T12:25:26.513Z,1.58
2024-05-09T12:27:53.298Z,1.02
2024-05-09T12:30:28.841Z,1.33
2024-05-09T12:33:02.698Z,1.00
2024-05-09T12:35:29.672Z,1.00
2024-05-09T12:37:56.375Z,1.15
2024-05-09T12:40:31.492Z,1.00
2024-05-09T12:43:02.926Z,1.00
2024-05-09T12:45:29.553Z,0.80
2024-05-09T12:47:56.285Z,1.20
2024-05-09T12:50:29.925Z,0.90
2024-05-09T12:52:59.549Z,1.40
2024-05-09T12:55:26.995Z,1.48
2024-05-09T12:57:54.642Z,1.73
2024-05-09T13:00:27.980Z,0.98
2024-05-09T13:03:00.729Z,0.93
2024-05-09T13:05:27.819Z,1.10
2024-05-09T13:07:56.423Z,1.35
2024-05-09T13:10:30.710Z,1.30
2024-05-09T13:13:00.001Z,1.67
2024-05-09T13:15:27.381Z,1.70
2024-05-09T13:17:56.376Z,1.20
2024-05-09T13:20:31.265Z,1.20
2024-05-09T13:23:02.001Z,1.23
2024-05-09T13:25:28.788Z,1.25
2024-05-09T13:27:56.729Z,1.48
2024-05-09T13:30:29.855Z,1.95
2024-05-09T13:33:05.908Z,1.65
2024-05-09T13:35:35.074Z,1.80
2024-05-09T13:38:02.557Z,1.42
2024-05-09T13:40:33.803Z,1.30
2024-05-09T13:43:03.502Z,1.45
2024-05-09T13:45:30.331Z,1.50
2024-05-09T13:47:57.251Z,1.17
2024-05-09T13:50:33.066Z,1.33
2024-05-09T13:53:03.081Z,1.40
2024-05-09T13:55:29.870Z,1.75
2024-05-09T13:57:56.735Z,1.58
2024-05-09T14:00:37.750Z,1.40
2024-05-09T14:03:10.650Z,1.83
2024-05-09T14:05:37.717Z,1.83
2024-05-09T14:08:04.789Z,1.70
2024-05-09T14:10:32.539Z,1.50
2024-05-09T14:13:00.734Z,2.13
2024-05-09T14:15:27.809Z,1.38
2024-05-09T14:17:55.631Z,1.58
2024-05-09T14:20:30.499Z,1.50
2024-05-09T14:22:59.639Z,1.08
2024-05-09T14:25:31.870Z,1.58
2024-05-09T14:27:58.819Z,1.70
2024-05-09T14:30:34.287Z,2.13
2024-05-09T14:33:04.764Z,1.48
2024-05-09T14:35:31.763Z,2.00
2024-05-09T14:37:58.841Z,1.75
2024-05-09T14:40:36.867Z,1.70
2024-05-09T14:43:08.716Z,2.05
2024-05-09T14:45:35.747Z,1.73
2024-05-09T14:48:03.341Z,1.60
2024-05-09T14:50:36.104Z,1.42
2024-05-09T14:53:07.089Z,2.05
2024-05-09T14:55:37.619Z,1.70
2024-05-09T14:58:09.316Z,1.70
2024-05-09T15:00:44.844Z,1.98
2024-05-09T15:03:15.439Z,1.60
2024-05-09T15:05:42.705Z,2.00
2024-05-09T15:08:09.538Z,1.67
2024-05-09T15:10:37.322Z,3.50
2024-05-09T15:13:07.261Z,1.40
2024-05-09T15:15:35.617Z,2.10
2024-05-09T15:18:04.112Z,1.80
2024-05-09T15:20:35.290Z,2.35
2024-05-09T15:23:05.410Z,1.77
2024-05-09T15:25:36.243Z,1.60
2024-05-09T15:28:04.338Z,1.70
2024-05-09T15:30:33.453Z,1.70
2024-05-09T15:33:04.186Z,1.80
2024-05-09T15:35:31.310Z,1.77
2024-05-09T15:37:57.965Z,1.67
2024-05-09T15:40:31.645Z,1.55
2024-05-09T15:43:05.777Z,1.40
2024-05-09T15:45:32.982Z,1.42
2024-05-09T15:48:00.470Z,1.83
2024-05-09T15:50:36.213Z,1.73
2024-05-09T15:53:07.688Z,1.33
2024-05-09T15:55:35.205Z,1.40
2024-05-09T15:58:03.266Z,1.70
2024-05-09T16:00:38.876Z,1.70
2024-05-09T16:03:09.873Z,1.40
2024-05-09T16:05:37.678Z,1.55
2024-05-09T16:08:05.499Z,1.40
2024-05-09T16:10:33.970Z,1.40
2024-05-09T16:13:02.656Z,1.90
2024-05-09T16:15:29.937Z,2.17
2024-05-09T16:17:56.949Z,2.42
2024-05-09T16:22:54.414Z,1.80
2024-05-09T16:25:21.131Z,1.55
2024-05-09T16:27:47.903Z,1.50
2024-05-09T16:30:21.343Z,1.70
2024-05-09T16:35:21.854Z,1.50
2024-05-09T16:37:48.751Z,1.45
2024-05-09T16:40:25.108Z,1.60
2024-05-09T16:43:03.832Z,1.58
2024-05-09T16:45:30.866Z,1.48
2024-05-09T16:47:57.880Z,2.03
2024-05-09T16:50:29.473Z,1.80
2024-05-09T16:52:59.848Z,1.40
2024-05-09T16:55:26.769Z,1.65
2024-05-09T16:57:53.596Z,1.50
2024-05-09T17:00:31.078Z,1.85
2024-05-09T17:03:06.666Z,1.15
2024-05-09T17:05:34.305Z,1.30
2024-05-09T17:08:01.452Z,1.20
2024-05-09T17:10:32.887Z,1.52
2024-05-09T17:13:02.448Z,1.42
2024-05-09T17:15:29.644Z,1.40
2024-05-09T17:17:56.535Z,0.80
2024-05-09T17:20:31.272Z,1.20
2024-05-09T17:23:02.241Z,1.40
2024-05-09T17:25:29.503Z,1.00
2024-05-09T17:27:56.645Z,1.30
2024-05-09T17:30:31.609Z,2.70
2024-05-09T17:33:03.222Z,1.30
2024-05-09T17:35:29.871Z,1.45
2024-05-09T17:37:56.938Z,1.17
2024-05-09T17:40:31.126Z,1.95
2024-05-09T17:43:01.615Z,1.30
2024-05-09T17:45:28.586Z,1.45
2024-05-09T17:47:55.571Z,1.60
2024-05-09T17:50:30.246Z,1.48
2024-05-09T17:53:01.323Z,1.40
2024-05-09T17:55:29.025Z,1.60
2024-05-09T17:57:55.968Z,1.40
2024-05-09T18:00:33.139Z,2.15
2024-05-09T18:03:06.416Z,1.70
2024-05-09T18:05:38.044Z,1.70
2024-05-09T18:08:08.463Z,2.17
2024-05-09T18:10:38.596Z,1.45
2024-05-09T18:13:08.487Z,1.80
2024-05-09T18:15:35.525Z,1.90
2024-05-09T18:18:03.593Z,1.73
2024-05-09T18:20:39.850Z,1.63
2024-05-09T18:23:11.386Z,1.65
2024-05-09T18:25:38.050Z,1.50
2024-05-09T18:28:05.619Z,1.40
2024-05-09T18:30:35.434Z,1.70
2024-05-09T18:33:05.374Z,1.67
2024-05-09T18:35:33.540Z,2.03
2024-05-09T18:38:00.352Z,1.90
2024-05-09T18:40:33.657Z,2.13
2024-05-09T18:43:04.465Z,1.73
2024-05-09T18:45:32.281Z,1.60
2024-05-09T18:48:00.214Z,1.90
2024-05-09T18:50:34.507Z,1.77
2024-05-09T18:53:08.621Z,1.90
2024-05-09T18:55:35.397Z,1.75
2024-05-09T18:58:02.764Z,1.98
2024-05-09T19:00:35.576Z,2.17
2024-05-09T19:03:09.866Z,1.65
2024-05-09T19:05:39.182Z,1.85
2024-05-09T19:08:07.812Z,2.03
2024-05-09T19:10:35.790Z,2.15
2024-05-09T19:13:07.998Z,1.95
2024-05-09T19:15:38.594Z,1.50
2024-05-09T19:18:06.190Z,1.80
2024-05-09T19:20:35.266Z,1.60
2024-05-09T19:23:03.314Z,1.48
2024-05-09T19:25:30.282Z,1.77
2024-05-09T19:27:56.975Z,2.65
2024-05-09T19:30:30.552Z,2.55
2024-05-09T19:33:06.037Z,5.13
2024-05-09T19:35:33.022Z,4.70
2024-05-09T19:38:00.030Z,4.45
2024-05-09T19:40:31.438Z,4.28
2024-05-09T19:43:01.719Z,6.30
2024-05-09T19:45:29.025Z,4.13
2024-05-09T19:47:56.747Z,3.70
2024-05-09T19:50:32.136Z,4.80
2024-05-09T19:53:06.633Z,4.10
2024-05-09T19:55:33.666Z,4.13
2024-05-09T19:58:04.857Z,6.57
2024-05-09T20:00:38.627Z,4.75
2024-05-09T20:03:07.957Z,5.00
2024-05-09T20:05:35.460Z,4.32
2024-05-09T20:08:02.625Z,4.20
2024-05-09T20:10:32.727Z,4.50
2024-05-09T20:13:02.135Z,4.07
2024-05-09T20:15:29.254Z,3.40
2024-05-09T20:17:56.218Z,4.00
2024-05-09T20:20:33.086Z,4.28
2024-05-09T20:23:06.127Z,3.97
2024-05-09T20:25:32.924Z,5.13
2024-05-09T20:27:59.654Z,4.00
2024-05-09T20:30:31.966Z,4.47
2024-05-09T20:33:02.709Z,5.72
2024-05-09T20:35:31.973Z,5.72
2024-05-09T20:37:59.156Z,5.82
2024-05-09T20:40:31.775Z,7.20
2024-05-09T20:43:02.325Z,8.40
2024-05-09T20:45:28.954Z,6.43
2024-05-09T20:47:56.089Z,8.63
2024-05-09T20:50:29.310Z,7.93
2024-05-09T20:53:04.038Z,6.20
2024-05-09T20:55:30.710Z,5.45
2024-05-09T20:57:57.652Z,5.95
2024-05-09T21:00:34.402Z,5.15
2024-05-09T21:03:07.036Z,5.40
2024-05-09T21:05:34.774Z,4.97
2024-05-09T21:08:09.914Z,6.18
2024-05-09T21:10:37.411Z,4.95
2024-05-09T21:13:05.238Z,5.10
2024-05-09T21:15:32.922Z,4.68
2024-05-09T21:17:59.696Z,4.85
2024-05-09T21:22:56.850Z,5.25
2024-05-09T21:25:23.441Z,5.55
2024-05-09T21:27:50.189Z,5.70
2024-05-09T21:30:26.595Z,5.63
2024-05-09T21:32:59.374Z,4.30
2024-05-09T21:35:26.194Z,4.63
2024-05-09T21:37:52.870Z,4.32
2024-05-09T21:40:27.253Z,4.53
2024-05-09T21:43:01.098Z,5.53
2024-05-09T21:45:27.864Z,4.82
2024-05-09T21:47:54.724Z,5.20
2024-05-09T21:50:28.080Z,4.97
2024-05-09T21:52:59.198Z,5.32
2024-05-09T21:55:25.962Z,5.80
2024-05-09T21:57:52.608Z,6.05
2024-05-09T22:00:28.828Z,7.25
2024-05-09T22:03:02.461Z,6.05
2024-05-09T22:05:29.733Z,6.05
2024-05-09T22:07:56.940Z,6.63
2024-05-09T22:10:30.479Z,6.38
2024-05-09T22:13:00.787Z,6.45
2024-05-09T22:15:27.505Z,5.45
2024-05-09T22:17:56.342Z,5.00
2024-05-09T22:20:32.775Z,5.38
2024-05-09T22:23:03.395Z,5.60
2024-05-09T22:25:31.165Z,6.18
2024-05-09T22:27:59.042Z,5.65
2024-05-09T22:30:34.308Z,6.15
2024-05-09T22:33:05.859Z,5.38
2024-05-09T22:35:32.958Z,5.43
2024-05-09T22:37:59.708Z,5.68
2024-05-09T22:40:38.134Z,5.47
2024-05-09T22:43:13.157Z,5.63
2024-05-09T22:45:39.924Z,5.43
2024-05-09T22:48:08.452Z,5.47
2024-05-09T22:50:35.759Z,5.78
2024-05-09T22:53:02.502Z,5.70
2024-05-09T22:55:29.303Z,5.57
2024-05-09T22:57:56.080Z,5.35
2024-05-09T23:00:30.947Z,6.55
2024-05-09T23:03:00.151Z,7.20
2024-05-09T23:05:27.179Z,8.52
2024-05-09T23:07:54.025Z,8.13
2024-05-09T23:10:27.794Z,7.90
2024-05-09T23:12:59.400Z,8.35
2024-05-09T23:15:26.003Z,9.35
2024-05-09T23:17:52.874Z,8.38
2024-05-09T23:20:29.877Z,7.07
2024-05-09T23:23:03.400Z,7.10
2024-05-09T23:25:30.227Z,6.90
2024-05-09T23:27:56.999Z,7.60
2024-05-09T23:30:33.317Z,8.50
2024-05-09T23:33:05.090Z,8.40
2024-05-09T23:35:31.933Z,8.07
2024-05-09T23:37:58.552Z,8.65
2024-05-09T23:40:36.652Z,9.27
2024-05-09T23:43:06.579Z,8.27
2024-05-09T23:45:33.556Z,8.48
2024-05-09T23:48:00.523Z,7.10
2024-05-09T23:50:34.260Z,7.65
2024-05-09T23:53:04.309Z,6.28
2024-05-09T23:55:31.963Z,6.72
2024-05-09T23:57:59.178Z,5.95
